createdAt,value
2019-02-15T00:00:38.674Z,103075.48
2019-02-15T00:05:42.083Z,103072.64
2019-02-15T00:10:45.366Z,103075.33
2019-02-15T00:15:48.649Z,103083.78
2019-02-15T00:20:53.579Z,103096.63
2019-02-15T00:25:56.882Z,103090.69
2019-02-15T00:31:00.274Z,103089.38
2019-02-15T00:36:03.609Z,103096.01
2019-02-15T00:41:06.918Z,103095.32
2019-02-15T00:46:20.861Z,103105.88
2019-02-15T00:51:44.170Z,103103.12
2019-02-15T00:56:54.928Z,103110.44
2019-02-15T01:02:02.914Z,103099.38
2019-02-15T01:07:07.896Z,103112.72
2019-02-15T01:12:18.624Z,103109.95
2019-02-15T01:17:22.005Z,103106.38
2019-02-15T01:22:25.334Z,103097.11
2019-02-15T01:27:30.293Z,103094.59
2019-02-15T01:32:35.268Z,103103.69
2019-02-15T01:42:59.384Z,103095.97
2019-02-15T01:48:02.736Z,103096.22
2019-02-15T01:53:06.154Z,103104.17
2019-02-15T01:58:09.483Z,103109.38
2019-02-15T02:03:12.867Z,103100.80
2019-02-15T02:08:17.840Z,103108.89
2019-02-15T02:13:21.186Z,103102.06
2019-02-15T02:18:24.594Z,103109.94
2019-02-15T02:23:27.908Z,103109.45
2019-02-15T02:28:31.242Z,103102.14
2019-02-15T02:33:34.582Z,103094.79
2019-02-15T02:38:37.958Z,103096.17
2019-02-15T02:43:41.305Z,103092.88
2019-02-15T02:48:44.724Z,103089.55
2019-02-15T02:53:48.027Z,103085.48
2019-02-15T02:58:51.332Z,103091.42
2019-02-15T03:03:54.664Z,103088.73
2019-02-15T03:08:57.995Z,103093.69
2019-02-15T03:14:11.088Z,103099.62
2019-02-15T03:19:06.384Z,103111.16
2019-02-15T03:24:09.737Z,103118.24
2019-02-15T03:29:13.044Z,103114.00
2019-02-15T03:34:16.428Z,103106.78
2019-02-15T03:39:21.400Z,103103.36
2019-02-15T03:44:24.735Z,103098.65
2019-02-15T03:49:28.207Z,103092.80
2019-02-15T03:54:31.538Z,103089.47
2019-02-15T03:59:34.874Z,103084.83
2019-02-15T04:04:38.197Z,103090.20
2019-02-15T04:09:41.530Z,103085.23
2019-02-15T04:14:44.878Z,103091.34
2019-02-15T04:19:48.202Z,103088.24
2019-02-15T04:24:51.509Z,103088.16
2019-02-15T04:29:54.852Z,103097.27
2019-02-15T04:34:58.185Z,103104.17
2019-02-15T04:40:01.630Z,103098.16
2019-02-15T04:45:06.701Z,103094.09
2019-02-15T04:50:10.106Z,103098.57
2019-02-15T04:55:13.441Z,103108.48
2019-02-15T05:00:16.768Z,103116.97
2019-02-15T05:05:20.126Z,103123.11
2019-02-15T05:10:23.465Z,103116.61
2019-02-15T05:15:26.780Z,103119.94
2019-02-15T05:20:30.231Z,103124.49
2019-02-15T05:25:33.611Z,103124.86
2019-02-15T05:30:36.940Z,103135.15
2019-02-15T05:35:40.273Z,103127.87
2019-02-15T05:40:43.603Z,103132.95
2019-02-15T05:45:46.976Z,103135.80
2019-02-15T05:50:50.432Z,103129.13
2019-02-15T05:55:53.771Z,103138.80
2019-02-15T06:00:57.173Z,103151.09
2019-02-15T06:06:00.484Z,103141.73
2019-02-15T06:11:07.193Z,103148.23
2019-02-15T06:16:08.909Z,103158.39
2019-02-15T06:21:12.217Z,103159.29
2019-02-15T06:26:15.632Z,103169.29
2019-02-15T06:31:18.940Z,103167.09
2019-02-15T06:36:22.343Z,103178.23
2019-02-15T06:41:25.704Z,103164.75
2019-02-15T06:46:29.009Z,103171.13
2019-02-15T06:51:32.337Z,103171.87
2019-02-15T06:56:35.668Z,103176.91
2019-02-15T07:01:40.647Z,103175.05
2019-02-15T07:06:43.981Z,103175.20
2019-02-15T07:11:47.320Z,103173.78
2019-02-15T07:16:50.744Z,103179.19
2019-02-15T07:21:54.065Z,103174.71
2019-02-15T07:26:57.476Z,103182.66
2019-02-15T07:32:00.784Z,103194.51
2019-02-15T07:37:04.116Z,103196.70
2019-02-15T07:42:07.424Z,103190.02
2019-02-15T07:47:10.816Z,103197.89
2019-02-15T07:52:14.144Z,103199.11
2019-02-15T07:57:17.584Z,103199.59
2019-02-15T08:02:20.921Z,103198.42
2019-02-15T08:07:49.482Z,103201.25
2019-02-15T08:12:52.827Z,103186.23
2019-02-15T08:17:56.190Z,103171.64
2019-02-15T08:22:59.599Z,103179.23
2019-02-15T08:28:02.914Z,103177.86
2019-02-15T08:33:06.248Z,103175.66
2019-02-15T08:38:09.631Z,103174.38
2019-02-15T08:43:13.028Z,103177.17
2019-02-15T08:48:16.369Z,103174.22
2019-02-15T08:53:19.777Z,103176.22
2019-02-15T08:58:23.157Z,103175.25
2019-02-15T09:03:26.652Z,103167.22
2019-02-15T09:08:30.205Z,103179.22
2019-02-15T09:13:33.496Z,103174.13
2019-02-15T09:18:36.833Z,103170.14
2019-02-15T09:23:40.152Z,103181.14
2019-02-15T09:28:45.117Z,103189.59
2019-02-15T09:33:48.450Z,103203.73
2019-02-15T09:38:51.881Z,103212.23
2019-02-15T09:43:55.316Z,103196.09
2019-02-15T09:48:58.642Z,103196.77
2019-02-15T09:54:02.024Z,103176.38
2019-02-15T09:59:05.398Z,103184.25
2019-02-15T10:04:08.756Z,103186.16
2019-02-15T10:09:12.122Z,103182.50
2019-02-15T10:14:15.469Z,103190.11
2019-02-15T10:19:22.452Z,103181.42
2019-02-15T10:24:23.925Z,103187.88
2019-02-15T10:29:27.283Z,103180.30
2019-02-15T10:34:30.757Z,103177.20
2019-02-15T10:39:34.083Z,103185.83
2019-02-15T10:44:37.403Z,103182.99
2019-02-15T10:49:40.714Z,103191.27
2019-02-15T10:54:44.067Z,103184.23
2019-02-15T10:59:47.427Z,103170.42
2019-02-15T11:04:50.839Z,103169.86
2019-02-15T11:09:54.303Z,103167.06
2019-02-15T11:14:57.647Z,103161.09
2019-02-15T11:20:01.045Z,103152.81
2019-02-15T11:25:06.222Z,103158.70
2019-02-15T11:30:12.265Z,103157.84
2019-02-15T11:35:15.574Z,103156.35
2019-02-15T11:40:18.921Z,103151.50
2019-02-15T11:45:22.285Z,103162.70
2019-02-15T11:50:25.633Z,103155.94
2019-02-15T11:55:29.013Z,103159.04
2019-02-15T12:00:33.980Z,103160.98
2019-02-15T12:05:37.369Z,103151.31
2019-02-15T12:10:40.696Z,103144.67
2019-02-15T12:15:44.032Z,103137.84
2019-02-15T12:20:47.363Z,103144.11
2019-02-15T12:25:50.680Z,103143.92
2019-02-15T12:30:54.086Z,103141.20
2019-02-15T12:35:57.413Z,103130.64
2019-02-15T12:41:00.817Z,103139.06
2019-02-15T12:46:04.212Z,103136.78
2019-02-15T12:51:07.561Z,103120.14
2019-02-15T12:56:10.874Z,103120.14
2019-02-15T13:01:14.270Z,103128.50
2019-02-15T13:06:17.595Z,103117.23
2019-02-15T13:11:20.918Z,103117.11
2019-02-15T13:16:24.292Z,103111.71
2019-02-15T13:21:28.492Z,103110.87
2019-02-15T13:26:31.806Z,103102.59
2019-02-15T13:31:35.136Z,103098.16
2019-02-15T13:36:38.452Z,103093.94
2019-02-15T13:41:41.801Z,103087.36
2019-02-15T13:46:45.137Z,103086.58
2019-02-15T13:51:48.546Z,103077.88
2019-02-15T13:56:51.885Z,103077.97
2019-02-15T14:01:55.223Z,103081.54
2019-02-15T14:06:58.560Z,103081.41
2019-02-15T14:12:03.026Z,103089.30
2019-02-15T14:17:06.509Z,103072.95
2019-02-15T14:22:09.823Z,103071.00
2019-02-15T14:27:13.134Z,103071.52
2019-02-15T14:32:16.461Z,103062.95
2019-02-15T14:37:19.782Z,103059.05
2019-02-15T14:42:23.118Z,103047.19
2019-02-15T14:47:26.469Z,103052.14
2019-02-15T14:52:29.870Z,103053.22
2019-02-15T14:57:33.177Z,103045.15
2019-02-15T15:02:36.495Z,103035.96
2019-02-15T15:07:39.824Z,103028.56
2019-02-15T15:12:43.240Z,103034.09
2019-02-15T15:17:46.618Z,103021.73
2019-02-15T15:22:49.946Z,103020.84
2019-02-15T15:27:53.281Z,103020.52
2019-02-15T15:32:56.614Z,103015.16
2019-02-15T15:38:00.019Z,103012.61
2019-02-15T15:43:03.425Z,103001.83
2019-02-15T15:48:06.709Z,102992.16
2019-02-15T15:53:09.991Z,102989.20
2019-02-15T15:58:13.286Z,102985.38
2019-02-15T16:03:16.626Z,102996.43
2019-02-15T16:08:19.889Z,102986.92
2019-02-15T16:13:23.192Z,102978.06
2019-02-15T16:18:33.145Z,102978.25
2019-02-15T16:23:31.457Z,102983.61
2019-02-15T16:28:34.870Z,102978.08
2019-02-15T16:33:38.165Z,102974.25
2019-02-15T16:38:41.437Z,102964.17
2019-02-15T16:43:44.726Z,102960.34
2019-02-15T16:48:48.051Z,102967.93
2019-02-15T16:53:51.347Z,102982.78
2019-02-15T16:58:54.639Z,102983.94
2019-02-15T17:03:57.911Z,102978.09
2019-02-15T17:09:01.369Z,102982.16
2019-02-15T17:14:04.645Z,102985.90
2019-02-15T17:19:07.961Z,102985.81
2019-02-15T17:24:11.256Z,102986.63
2019-02-15T17:29:14.573Z,102988.49
2019-02-15T17:34:17.940Z,102985.55
2019-02-15T17:39:21.237Z,102980.77
2019-02-15T17:44:24.529Z,102982.23
2019-02-15T17:49:27.824Z,102978.58
2019-02-15T17:54:31.143Z,102975.87
2019-02-15T17:59:34.426Z,102975.15
2019-02-15T18:04:37.774Z,102964.81
2019-02-15T18:09:41.076Z,102960.53
2019-02-15T18:14:44.364Z,102955.88
2019-02-15T18:19:47.652Z,102948.39
2019-02-15T18:24:50.937Z,102953.52
2019-02-15T18:29:54.252Z,102943.53
2019-02-15T18:34:57.541Z,102945.23
2019-02-15T18:40:00.829Z,102941.97
2019-02-15T18:45:05.637Z,102951.56
2019-02-15T18:50:09.962Z,102936.05
2019-02-15T18:55:13.269Z,102929.22
2019-02-15T19:00:17.079Z,102928.50
2019-02-15T19:05:20.368Z,102930.11
2019-02-15T19:10:24.308Z,102919.80
2019-02-15T19:15:27.887Z,102915.57
2019-02-15T19:20:31.175Z,102910.75
2019-02-15T19:25:34.455Z,102904.52
2019-02-15T19:30:37.829Z,102901.66
2019-02-15T19:35:41.109Z,102902.95
2019-02-15T19:40:44.436Z,102908.75
2019-02-15T19:45:49.079Z,102897.52
2019-02-15T19:50:52.358Z,102895.91
2019-02-15T19:55:55.635Z,102898.23
2019-02-15T20:00:58.926Z,102889.94
2019-02-15T20:06:02.229Z,102885.30
2019-02-15T20:11:05.746Z,102887.13
2019-02-15T20:16:09.063Z,102878.84
2019-02-15T20:21:12.397Z,102883.61
2019-02-15T20:26:15.688Z,102877.50
2019-02-15T20:31:19.230Z,102868.50
2019-02-15T20:36:22.603Z,102862.88
2019-02-15T20:41:26.053Z,102862.80
2019-02-15T20:46:29.352Z,102867.34
2019-02-15T20:51:32.649Z,102862.74
2019-02-15T20:56:36.019Z,102856.72
2019-02-15T21:01:39.344Z,102846.87
2019-02-15T21:06:42.648Z,102849.55
2019-02-15T21:11:45.955Z,102854.45
2019-02-15T21:16:49.244Z,102846.52
2019-02-15T21:21:52.541Z,102843.05
2019-02-15T21:26:55.826Z,102842.64
2019-02-15T21:31:59.154Z,102834.00
2019-02-15T21:37:02.431Z,102826.45
2019-02-15T21:42:05.727Z,102829.70
2019-02-15T21:47:09.016Z,102824.67
2019-02-15T21:52:12.313Z,102819.85
2019-02-15T21:57:15.605Z,102814.41
2019-02-15T22:02:18.878Z,102815.39
2019-02-15T22:07:22.675Z,102808.48
2019-02-15T22:12:25.955Z,102807.41
2019-02-15T22:17:29.245Z,102815.22
2019-02-15T22:22:32.518Z,102803.58
2019-02-15T22:27:35.820Z,102817.22
2019-02-15T22:32:39.122Z,102807.55
2019-02-15T22:37:42.397Z,102815.03
2019-02-15T22:42:45.673Z,102811.78
2019-02-15T22:47:48.975Z,102807.72
2019-02-15T22:52:52.339Z,102808.70
2019-02-15T22:57:55.560Z,102808.38
2019-02-15T23:02:58.837Z,102795.45
2019-02-15T23:08:02.137Z,102792.73
2019-02-15T23:13:05.432Z,102792.73
2019-02-15T23:18:08.749Z,102787.70
2019-02-15T23:23:12.077Z,102790.06
2019-02-15T23:28:15.378Z,102792.10
2019-02-15T23:33:18.690Z,102784.70
2019-02-15T23:38:21.955Z,102785.68
2019-02-15T23:43:25.247Z,102788.10
2019-02-15T23:48:28.543Z,102779.88
2019-02-15T23:53:31.832Z,102783.14
2019-02-15T23:58:35.174Z,102773.95
